Time;durP1;ratioP1;P1;durP2;ratioP2;P2;SDS_P1;SDS_P2;PMS_P1;PMS_P2;Temp;Humidity;BMP_temperature;BMP_pressure;BME280_temperature;BME280_humidity;BME280_pressure;Samples;Min_cycle;Max_cycle;Signal;HPM_P1;HPM_P2
2022/04/16 00:01:08;;;;;;;3.92;1.75;;;;;;;4.68;65.42;102941.66;5040173;28;20392;-71
2022/04/16 00:03:34;;;;;;;4.57;1.98;;;;;;;4.69;65.63;102944.25;5038782;28;20044;-71
2022/04/16 00:06:00;;;;;;;6.53;2.10;;;;;;;4.67;65.57;102947.75;5038080;28;20044;-71
2022/04/16 00:08:28;;;;;;;5.35;1.95;;;;;;;4.68;65.42;102952.09;5041622;28;20043;-71
2022/04/16 00:10:54;;;;;;;3.72;1.80;;;;;;;4.66;65.56;102953.81;5042968;28;20040;-71
2022/04/16 00:13:21;;;;;;;6.85;2.00;;;;;;;4.65;65.30;102957.28;5042268;28;20374;-71
2022/04/16 00:15:52;;;;;;;5.22;1.70;;;;;;;4.68;65.53;102945.16;5027763;28;20044;-71
2022/04/16 00:18:18;;;;;;;6.10;1.83;;;;;;;4.69;65.37;102944.25;5046216;28;20025;-71
2022/04/16 00:20:44;;;;;;;6.20;1.92;;;;;;;4.70;65.13;102948.59;5040996;28;20032;-71
2022/04/16 00:23:10;;;;;;;7.40;2.03;;;;;;;4.67;65.46;102951.22;5042125;28;20401;-71
2022/04/16 00:25:36;;;;;;;4.47;2.10;;;;;;;4.66;65.64;102953.81;5040447;28;20033;-71
2022/04/16 00:28:03;;;;;;;5.28;1.88;;;;;;;4.66;65.68;102951.22;5043731;28;20041;-71
2022/04/16 00:30:30;;;;;;;5.53;2.30;;;;;;;4.71;65.58;102957.31;5043767;28;20500;-71
2022/04/16 00:32:57;;;;;;;6.10;2.00;;;;;;;4.78;65.72;102955.59;5043721;28;20378;-71
2022/04/16 00:35:23;;;;;;;6.78;1.75;;;;;;;4.86;65.44;102959.97;5041510;28;20048;-71
2022/04/16 00:37:49;;;;;;;6.72;1.75;;;;;;;4.88;65.36;102957.34;5043171;28;20045;-71
2022/04/16 00:40:14;;;;;;;5.13;1.98;;;;;;;4.87;65.30;102956.50;5043520;28;20406;-71
2022/04/16 00:42:44;;;;;;;5.20;2.10;;;;;;;4.90;65.44;102954.75;5043225;28;20473;-71
2022/04/16 00:45:10;;;;;;;5.63;2.10;;;;;;;4.90;65.50;102946.94;5044762;28;20044;-71
2022/04/16 00:47:36;;;;;;;5.97;1.98;;;;;;;4.90;65.39;102954.75;5043304;28;20774;-71
2022/04/16 00:50:08;;;;;;;4.95;2.10;;;;;;;4.90;65.58;102962.59;5042364;28;20060;-71
2022/04/16 00:52:35;;;;;;;5.53;2.22;;;;;;;4.91;65.39;102964.31;5041221;28;20047;-72
2022/04/16 00:55:00;;;;;;;4.32;2.10;;;;;;;4.92;65.38;102968.66;5045240;28;20033;-71
2022/04/16 00:57:26;;;;;;;4.10;2.17;;;;;;;4.91;65.24;102965.19;5043919;28;20484;-71
2022/04/16 00:59:53;;;;;;;6.28;2.38;;;;;;;4.88;65.35;102966.06;5042711;28;20061;-70
2022/04/16 01:02:19;;;;;;;7.45;2.10;;;;;;;4.91;65.61;102969.53;5039991;28;20048;-71
2022/04/16 01:04:44;;;;;;;5.63;2.00;;;;;;;4.89;65.51;102972.13;5041224;28;20033;-71
2022/04/16 01:07:10;;;;;;;8.15;2.40;;;;;;;4.86;65.44;102978.22;5042536;28;20050;-71
2022/04/16 01:09:35;;;;;;;5.00;2.28;;;;;;;4.86;65.68;102978.22;5028877;28;20033;-72
2022/04/16 01:12:01;;;;;;;4.13;1.88;;;;;;;4.86;65.35;102975.63;5042054;28;20128;-71
2022/04/16 01:14:28;;;;;;;6.97;2.35;;;;;;;4.88;65.54;102979.09;5042406;28;20053;-71
2022/04/16 01:16:55;;;;;;;7.07;2.42;;;;;;;4.88;65.71;102984.31;5043866;28;20034;-71
2022/04/16 01:19:21;;;;;;;6.07;2.38;;;;;;;4.85;65.58;102992.13;5040373;28;20033;-72
2022/04/16 01:21:47;;;;;;;8.57;2.50;;;;;;;4.81;65.90;102979.94;5040319;28;20682;-71
2022/04/16 01:24:14;;;;;;;4.13;2.15;;;;;;;4.78;65.67;102992.97;5041638;28;20069;-71
2022/04/16 01:26:43;;;;;;;6.95;2.20;;;;;;;4.73;66.19;102989.50;5043483;28;20037;-71
2022/04/16 01:29:09;;;;;;;11.20;2.40;;;;;;;4.76;65.93;102991.22;5042712;28;20025;-71
2022/04/16 01:31:35;;;;;;;4.82;2.33;;;;;;;4.78;65.85;102984.28;5044382;28;20032;-71
2022/04/16 01:34:01;;;;;;;6.20;1.90;;;;;;;4.75;65.93;102998.22;5040309;28;20021;-71
2022/04/16 01:36:30;;;;;;;3.45;1.60;;;;;;;4.70;65.96;102987.72;5041551;28;20167;-71
2022/04/16 01:38:57;;;;;;;8.63;1.80;;;;;;;4.64;65.99;102987.72;5041934;28;20063;-71
2022/04/16 01:41:24;;;;;;;4.03;1.85;;;;;;;4.62;66.02;102992.06;5042405;28;20044;-71
2022/04/16 01:43:49;;;;;;;6.78;1.75;;;;;;;4.60;66.08;102987.72;5041328;28;20043;-71
2022/04/16 01:46:15;;;;;;;4.40;1.65;;;;;;;4.58;65.96;102998.13;5039498;28;20033;-71
2022/04/16 01:48:40;;;;;;;4.85;1.60;;;;;;;4.56;66.25;103000.75;5043079;28;25248;-71
2022/04/16 01:51:07;;;;;;;6.28;2.05;;;;;;;4.56;66.11;103003.34;5041916;28;21381;-71
2022/04/16 01:53:32;;;;;;;3.75;1.85;;;;;;;4.56;66.02;103003.34;5041557;28;20121;-71
2022/04/16 01:55:58;;;;;;;3.33;1.77;;;;;;;4.54;66.14;102996.38;5042469;28;20116;-71
2022/04/16 01:58:23;;;;;;;6.10;1.75;;;;;;;4.49;66.16;102995.50;5042315;28;20045;-71
2022/04/16 02:00:49;;;;;;;4.75;1.80;;;;;;;4.55;66.15;102998.09;5041379;28;20029;-71
2022/04/16 02:03:14;;;;;;;3.53;1.83;;;;;;;4.56;66.01;102995.53;5020606;28;20037;-71
2022/04/16 02:05:40;;;;;;;4.60;1.77;;;;;;;4.55;66.19;102998.09;5040633;28;20117;-71
2022/04/16 02:08:07;;;;;;;6.28;2.25;;;;;;;4.57;66.15;102999.88;5039427;28;20115;-71
2022/04/16 02:10:34;;;;;;;6.28;1.73;;;;;;;4.60;66.16;103003.38;5023138;28;20041;-71
2022/04/16 02:13:00;;;;;;;9.57;2.13;;;;;;;4.56;66.01;102995.53;5042318;28;20036;-71
2022/04/16 02:15:27;;;;;;;4.20;1.70;;;;;;;4.56;65.82;103005.97;5043339;28;20044;-71
2022/04/16 02:17:54;;;;;;;6.18;1.80;;;;;;;4.55;65.87;103004.22;5042134;28;20045;-71
2022/04/16 02:20:23;;;;;;;3.55;2.00;;;;;;;4.56;66.16;103005.06;5037583;28;20477;-71
2022/04/16 02:22:49;;;;;;;6.28;1.98;;;;;;;4.50;65.92;103011.13;5040028;28;20036;-71
2022/04/16 02:25:20;;;;;;;4.85;1.75;;;;;;;4.49;65.74;103005.94;5040100;28;20574;-71
2022/04/16 02:27:46;;;;;;;4.30;1.88;;;;;;;4.45;66.12;103002.44;5040073;28;20132;-71
2022/04/16 02:30:14;;;;;;;9.35;2.60;;;;;;;4.46;65.91;103011.13;5042437;28;20040;-71
2022/04/16 02:32:48;;;;;;;5.88;2.67;;;;;;;4.40;66.19;103009.34;5039779;28;20424;-71
2022/04/16 02:35:16;;;;;;;5.28;2.13;;;;;;;4.38;66.13;103006.75;5042161;28;20043;-71
2022/04/16 02:37:42;;;;;;;3.78;2.00;;;;;;;4.36;65.87;103002.38;5039868;28;20393;-71
2022/04/16 02:40:09;;;;;;;5.72;2.40;;;;;;;4.40;66.04;103001.53;5040456;28;20089;-71
2022/04/16 02:42:39;;;;;;;7.40;2.05;;;;;;;4.40;65.83;102998.94;5042888;28;20030;-71
2022/04/16 02:47:55;;;;;;;8.02;2.00;;;;;;;4.36;66.24;103002.38;5038805;28;20769;-71
2022/04/16 02:50:21;;;;;;;5.15;2.60;;;;;;;4.33;66.20;103002.38;5038535;28;20055;-71
2022/04/16 02:52:46;;;;;;;6.72;2.45;;;;;;;4.32;66.21;103013.66;5038942;28;20432;-71
2022/04/16 02:55:16;;;;;;;8.32;2.30;;;;;;;4.24;66.37;103003.19;5041847;28;20030;-71
2022/04/16 02:57:45;;;;;;;5.07;2.07;;;;;;;4.20;66.50;103001.44;5041078;28;20063;-71
2022/04/16 03:00:12;;;;;;;8.73;2.42;;;;;;;4.22;66.25;103015.38;5041918;28;20040;-71
2022/04/16 03:02:37;;;;;;;7.82;3.60;;;;;;;4.23;66.39;103017.97;5040936;28;20403;-71
2022/04/16 03:05:06;;;;;;;9.32;2.67;;;;;;;4.22;66.26;103018.81;5038284;28;20033;-71
2022/04/16 03:07:32;;;;;;;7.10;2.22;;;;;;;4.19;66.29;103016.19;5040171;28;20113;-71
2022/04/16 03:09:58;;;;;;;6.18;2.70;;;;;;;4.17;66.41;103023.13;5040813;28;20424;-72
2022/04/16 03:12:23;;;;;;;10.73;3.00;;;;;;;4.13;66.21;103029.22;5041708;28;20938;-71
2022/04/16 03:17:33;;;;;;;6.38;2.10;;;;;;;4.14;66.28;103032.66;5041983;28;20064;-70
2022/04/16 03:20:04;;;;;;;6.32;1.90;;;;;;;4.14;66.43;103043.97;5040179;28;20041;-71
2022/04/16 03:22:32;;;;;;;8.10;2.67;;;;;;;4.12;66.45;103040.50;5041889;28;20497;-71
2022/04/16 03:24:58;;;;;;;6.22;2.50;;;;;;;4.05;66.52;103047.41;5041912;28;20033;-72
2022/04/16 03:27:24;;;;;;;12.35;4.68;;;;;;;4.01;66.52;103049.97;5040023;28;20428;-74
2022/04/16 03:29:49;;;;;;;4.75;2.40;;;;;;;3.98;66.55;103048.19;5033315;28;20488;-71
2022/04/16 03:32:15;;;;;;;7.03;2.95;;;;;;;3.96;66.61;103060.34;5040890;28;20033;-71
2022/04/16 03:34:40;;;;;;;3.13;1.70;;;;;;;3.93;66.58;103058.59;5037230;28;20041;-71
2022/04/16 03:37:06;;;;;;;4.07;2.00;;;;;;;3.91;66.53;103065.53;5039710;28;20082;-71
2022/04/16 03:39:32;;;;;;;6.95;2.08;;;;;;;3.89;66.68;103064.63;5032134;28;20116;-71
2022/04/16 03:41:57;;;;;;;6.57;2.13;;;;;;;3.85;66.92;103062.00;5040342;28;20056;-71
2022/04/16 03:44:23;;;;;;;6.28;1.95;;;;;;;3.81;66.92;103055.91;5039369;28;20508;-71
2022/04/16 03:46:48;;;;;;;9.27;3.13;;;;;;;3.79;67.00;103052.41;5040318;28;20036;-71
2022/04/16 03:49:14;;;;;;;6.05;2.70;;;;;;;3.85;67.02;103057.69;5037760;28;20288;-71
2022/04/16 03:51:39;;;;;;;5.63;2.22;;;;;;;3.85;67.08;103068.09;5040495;28;20041;-71
2022/04/16 04:02:17;;;;;;;6.18;2.13;;;;;;;3.79;67.25;103075.84;5038424;28;20140;-71
2022/04/16 04:04:43;;;;;;;6.28;2.25;;;;;;;3.81;67.15;103080.19;5038323;28;20033;-71
2022/04/16 04:07:10;;;;;;;4.10;1.98;;;;;;;3.81;67.17;103084.56;5038621;28;20404;-72
2022/04/16 04:09:38;;;;;;;7.50;2.65;;;;;;;3.81;67.07;103077.59;5038891;28;21164;-71
2022/04/16 04:12:11;;;;;;;6.72;2.55;;;;;;;3.81;67.31;103079.34;5039474;28;20037;-71
2022/04/16 04:14:38;;;;;;;11.75;6.30;;;;;;;3.83;67.38;103090.66;5037378;28;20112;-73
2022/04/16 04:17:06;;;;;;;5.75;2.53;;;;;;;3.82;67.45;103088.91;5037432;28;20036;-72
2022/04/16 04:19:33;;;;;;;6.80;2.53;;;;;;;3.87;67.30;103095.00;5036977;28;20071;-71
2022/04/16 04:21:59;;;;;;;7.68;2.08;;;;;;;3.90;67.32;103100.25;5038031;28;20037;-71
2022/04/16 04:24:24;;;;;;;8.30;2.78;;;;;;;3.93;67.33;103102.88;5039154;28;20083;-72
2022/04/16 04:26:54;;;;;;;5.43;2.25;;;;;;;4.02;67.13;103106.41;5035969;28;20029;-72
2022/04/16 04:29:20;;;;;;;5.28;2.28;;;;;;;4.04;67.06;103109.91;5038525;28;20025;-72
2022/04/16 04:31:45;;;;;;;4.47;1.95;;;;;;;4.07;67.17;103113.44;5040238;28;20481;-72
2022/04/16 04:34:10;;;;;;;5.45;2.10;;;;;;;4.05;67.11;103114.25;5038860;28;20497;-72
2022/04/16 04:36:36;;;;;;;6.32;2.47;;;;;;;4.04;67.19;103120.31;5027654;28;20465;-72
2022/04/16 04:39:01;;;;;;;8.82;2.10;;;;;;;4.02;67.19;103129.84;5040005;28;20078;-72
2022/04/16 04:41:27;;;;;;;4.80;2.17;;;;;;;3.96;67.30;103128.97;5040729;28;20026;-72
2022/04/16 04:43:52;;;;;;;5.72;2.53;;;;;;;3.93;67.32;103133.28;5040217;28;20037;-72
2022/04/16 04:46:18;;;;;;;9.52;2.50;;;;;;;3.96;67.32;103130.69;5040587;28;20033;-72
2022/04/16 04:48:43;;;;;;;6.40;2.10;;;;;;;3.97;67.60;103135.91;5039528;28;20040;-72
2022/04/16 04:51:08;;;;;;;6.10;1.90;;;;;;;3.96;67.42;103128.97;5038047;28;20061;-72
2022/04/16 04:53:34;;;;;;;7.22;1.90;;;;;;;4.02;67.35;103145.50;5037380;28;20075;-72
2022/04/16 04:55:59;;;;;;;5.35;2.03;;;;;;;4.05;67.16;103128.16;5039702;28;20090;-72
2022/04/16 04:58:25;;;;;;;5.65;1.90;;;;;;;4.04;67.40;103147.25;5043781;28;20393;-72
2022/04/16 05:00:50;;;;;;;7.28;2.33;;;;;;;4.01;67.47;103136.81;5045203;28;20435;-72
2022/04/16 05:03:16;;;;;;;8.65;2.40;;;;;;;4.08;67.21;103138.59;5041965;28;20550;-72
2022/04/16 05:05:41;;;;;;;6.78;2.45;;;;;;;4.11;67.19;103140.38;5043732;28;20500;-71
2022/04/16 05:08:06;;;;;;;6.22;2.25;;;;;;;4.16;67.21;103148.22;5043958;28;20072;-72
2022/04/16 05:10:32;;;;;;;6.65;2.58;;;;;;;4.20;67.07;103153.47;5042216;28;20028;-72
2022/04/16 05:12:57;;;;;;;4.13;2.05;;;;;;;4.21;67.05;103155.22;5039963;28;20033;-72
2022/04/16 05:15:23;;;;;;;23.77;10.48;;;;;;;4.23;67.38;103153.50;5042687;28;20603;-71
2022/04/16 05:17:48;;;;;;;4.80;2.40;;;;;;;4.21;67.04;103169.97;5042733;28;20032;-71
2022/04/16 05:20:14;;;;;;;6.97;2.17;;;;;;;4.21;67.03;103178.66;5041022;28;20555;-71
2022/04/16 05:22:40;;;;;;;5.85;2.22;;;;;;;4.24;66.97;103181.31;5043206;28;20096;-72
2022/04/16 05:25:06;;;;;;;5.57;2.08;;;;;;;4.26;67.01;103171.75;5042765;28;20132;-72
2022/04/16 05:27:34;;;;;;;5.70;2.35;;;;;;;4.22;67.00;103177.81;5041994;28;20044;-72
2022/04/16 05:30:22;;;;;;;4.57;2.25;;;;;;;4.30;67.02;103167.44;5043172;28;20063;-72
2022/04/16 05:32:50;;;;;;;6.05;2.60;;;;;;;4.38;67.07;103176.22;5043519;28;20472;-71
2022/04/16 05:35:16;;;;;;;4.38;2.42;;;;;;;4.34;66.96;103177.03;5040406;28;20037;-72
2022/04/16 05:37:42;;;;;;;4.95;2.13;;;;;;;4.40;66.90;103179.66;5042239;28;20491;-72
2022/04/16 05:40:09;;;;;;;7.00;2.30;;;;;;;4.37;66.91;103182.28;5025490;28;20041;-71
2022/04/16 05:42:39;;;;;;;4.72;2.00;;;;;;;4.37;67.29;103178.78;5042975;28;20948;-72
2022/04/16 05:45:05;;;;;;;6.45;2.22;;;;;;;4.46;66.99;103177.97;5041619;28;20123;-72
2022/04/16 05:47:30;;;;;;;11.70;4.00;;;;;;;4.54;66.70;103187.59;5041462;28;20504;-72
2022/04/16 05:49:56;;;;;;;12.95;5.18;;;;;;;4.60;66.94;103196.34;5041537;28;20040;-72
2022/04/16 05:52:22;;;;;;;8.30;2.88;;;;;;;4.62;66.76;103191.97;5042553;28;20029;-71
2022/04/16 05:54:48;;;;;;;9.27;2.33;;;;;;;4.66;66.51;103186.81;5042711;28;20033;-72
2022/04/16 05:57:16;;;;;;;6.10;2.55;;;;;;;4.70;66.45;103192.91;5041902;28;20112;-72
2022/04/16 05:59:43;;;;;;;5.43;2.22;;;;;;;4.75;66.74;103199.06;5043648;28;20033;-72
2022/04/16 06:02:10;;;;;;;6.20;2.42;;;;;;;4.79;66.44;103200.78;5041897;28;20087;-72
2022/04/16 06:04:35;;;;;;;4.45;1.90;;;;;;;4.85;66.28;103202.56;5040971;28;20044;-71
2022/04/16 06:07:01;;;;;;;6.97;1.90;;;;;;;4.87;66.29;103193.91;5041751;28;20029;-71
2022/04/16 06:09:28;;;;;;;6.85;2.42;;;;;;;4.92;66.30;103200.84;5041908;28;20330;-72
2022/04/16 06:12:00;;;;;;;8.18;2.60;;;;;;;5.03;66.14;103199.19;5041672;28;20025;-71
2022/04/16 06:14:25;;;;;;;7.57;2.47;;;;;;;5.07;66.14;103198.31;5041416;28;20056;-71
2022/04/16 06:16:50;;;;;;;6.38;2.38;;;;;;;5.08;66.09;103202.69;5040975;28;20068;-73
2022/04/16 06:19:16;;;;;;;6.38;2.45;;;;;;;5.11;65.84;103199.25;5038358;28;20029;-71
2022/04/16 06:21:41;;;;;;;8.48;2.65;;;;;;;5.04;66.03;103214.00;5041508;28;20029;-72
2022/04/16 06:24:07;;;;;;;7.95;2.40;;;;;;;5.09;65.79;103219.22;5039935;28;20530;-72
2022/04/16 06:26:32;;;;;;;5.43;2.05;;;;;;;5.11;66.03;103222.72;5042127;28;20525;-71
2022/04/16 06:28:58;;;;;;;5.72;2.40;;;;;;;5.13;65.82;103226.22;5040538;28;20037;-71
2022/04/16 06:31:23;;;;;;;6.93;2.20;;;;;;;5.11;65.84;103226.19;5040445;28;20042;-72
2022/04/16 06:33:48;;;;;;;6.22;2.47;;;;;;;5.22;65.77;103212.34;5040816;28;20940;-73
2022/04/16 06:36:14;;;;;;;6.68;2.40;;;;;;;5.30;65.63;103208.03;5041465;28;20111;-72
2022/04/16 06:38:39;;;;;;;5.35;2.17;;;;;;;5.43;65.70;103216.78;5041223;28;20040;-72
2022/04/16 06:41:05;;;;;;;6.65;2.38;;;;;;;5.52;65.48;103213.34;5041054;28;20041;-72
2022/04/16 06:43:30;;;;;;;6.82;2.33;;;;;;;5.57;65.43;103214.19;5041655;28;20033;-72
2022/04/16 06:45:56;;;;;;;4.60;1.92;;;;;;;5.59;64.85;103217.69;5041046;28;20095;-72
2022/04/16 06:48:21;;;;;;;6.00;1.77;;;;;;;5.58;65.09;103215.94;5039997;28;20029;-72
2022/04/16 06:50:47;;;;;;;5.82;2.20;;;;;;;5.63;64.88;103222.91;5042395;28;20039;-72
2022/04/16 06:53:12;;;;;;;4.55;2.00;;;;;;;5.67;64.91;103220.31;5040696;28;20432;-72
2022/04/16 06:55:38;;;;;;;3.72;1.80;;;;;;;5.68;64.91;103228.16;5040642;28;20393;-72
2022/04/16 06:58:03;;;;;;;3.45;1.67;;;;;;;5.71;64.89;103225.56;5041236;28;20096;-71
2022/04/16 07:00:30;;;;;;;5.07;1.90;;;;;;;5.77;64.78;103233.41;5041838;28;20112;-72
2022/04/16 07:02:55;;;;;;;4.03;1.80;;;;;;;5.78;64.51;103235.16;5024989;28;20048;-71
2022/04/16 07:05:21;;;;;;;5.57;2.10;;;;;;;5.83;64.54;103234.28;5039467;28;20082;-71
2022/04/16 07:07:46;;;;;;;8.48;2.10;;;;;;;5.87;64.44;103241.28;5041067;28;20036;-71
2022/04/16 07:10:12;;;;;;;10.15;2.70;;;;;;;5.86;64.34;103234.28;5040067;28;20041;-71
2022/04/16 07:12:38;;;;;;;4.95;1.90;;;;;;;5.94;64.28;103232.59;5041519;28;20037;-71
2022/04/16 07:15:05;;;;;;;4.05;1.50;;;;;;;6.08;64.18;103233.50;5039030;28;20083;-71
2022/04/16 07:17:30;;;;;;;5.65;2.55;;;;;;;6.16;64.00;103230.03;5039820;28;20064;-71
2022/04/16 07:19:56;;;;;;;6.85;2.20;;;;;;;6.21;63.64;103230.91;5040263;28;20116;-71
2022/04/16 07:22:21;;;;;;;8.27;1.90;;;;;;;6.30;63.20;103230.91;5043292;28;20029;-71
2022/04/16 07:24:48;;;;;;;9.27;2.08;;;;;;;6.35;63.07;103234.38;5041301;28;20155;-71
2022/04/16 07:27:15;;;;;;;3.30;1.50;;;;;;;6.45;62.65;103231.75;5042316;28;20047;-71
2022/04/16 07:29:40;;;;;;;2.60;1.35;;;;;;;6.51;62.61;103239.63;5041134;28;20159;-71
2022/04/16 07:32:06;;;;;;;3.67;1.20;;;;;;;6.55;61.51;103239.63;5035551;28;20041;-71
2022/04/16 07:34:32;;;;;;;1.92;1.10;;;;;;;6.59;61.49;103237.84;5032750;28;20146;-71
2022/04/16 07:36:57;;;;;;;3.03;0.88;;;;;;;6.64;60.68;103235.25;5041541;28;20082;-70
2022/04/16 07:39:23;;;;;;;1.75;0.82;;;;;;;6.73;60.29;103244.84;5037045;28;20466;-70
2022/04/16 07:41:51;;;;;;;2.58;1.20;;;;;;;6.78;60.22;103253.53;5037996;28;20029;-71
2022/04/16 07:44:16;;;;;;;1.77;0.90;;;;;;;6.83;59.12;103260.50;5041833;28;20033;-71
2022/04/16 07:46:42;;;;;;;5.65;0.90;;;;;;;6.81;58.31;103257.00;5038126;28;20043;-71
2022/04/16 07:49:07;;;;;;;4.25;0.82;;;;;;;6.83;58.32;103257.88;5029625;28;20057;-71
2022/04/16 07:51:33;;;;;;;2.55;0.90;;;;;;;6.92;58.27;103256.16;5040790;28;20029;-71
2022/04/16 07:53:59;;;;;;;1.98;0.77;;;;;;;7.01;58.29;103257.00;5039415;28;20025;-71
2022/04/16 07:56:25;;;;;;;2.25;0.70;;;;;;;7.10;58.24;103253.50;5038419;28;20064;-71
2022/04/16 07:58:51;;;;;;;3.38;1.08;;;;;;;7.13;57.62;103258.69;5038043;28;20466;-71
2022/04/16 08:01:17;;;;;;;2.20;0.82;;;;;;;7.21;57.34;103258.69;5041380;28;20071;-71
2022/04/16 08:03:43;;;;;;;1.77;0.90;;;;;;;7.28;56.78;103257.78;5037665;28;20087;-71
2022/04/16 08:06:09;;;;;;;2.25;0.98;;;;;;;7.32;56.25;103275.25;5043021;28;20021;-71
2022/04/16 08:08:34;;;;;;;2.17;0.90;;;;;;;7.31;56.03;103268.28;5041402;28;20064;-71
2022/04/16 08:11:00;;;;;;;2.70;0.85;;;;;;;7.35;55.36;103271.75;5041649;28;20053;-71
2022/04/16 08:13:25;;;;;;;2.80;0.90;;;;;;;7.44;55.69;103270.84;5040954;28;20132;-71
2022/04/16 08:15:51;;;;;;;2.03;1.00;;;;;;;7.52;55.55;103269.03;5040839;28;20477;-71
2022/04/16 08:18:17;;;;;;;1.48;0.93;;;;;;;7.49;55.02;103274.28;5042022;28;20033;-71
2022/04/16 08:20:43;;;;;;;1.00;0.70;;;;;;;7.52;54.55;103274.28;5041057;28;20029;-71
2022/04/16 08:23:08;;;;;;;2.03;1.00;;;;;;;7.50;54.71;103276.03;5037979;28;20029;-71
2022/04/16 08:28:01;;;;;;;2.13;0.90;;;;;;;7.47;53.83;103286.53;5035328;28;20129;-71
2022/04/16 08:30:27;;;;;;;6.30;3.60;;;;;;;7.40;53.71;103280.47;5034265;28;20056;-70
2022/04/16 08:32:53;;;;;;;2.83;1.10;;;;;;;7.45;53.58;103283.06;5041903;28;20112;-71
2022/04/16 08:35:19;;;;;;;2.42;1.30;;;;;;;7.42;53.24;103283.06;5044642;28;20156;-71
2022/04/16 08:37:46;;;;;;;1.95;1.20;;;;;;;7.41;52.86;103282.16;5042618;28;20424;-71
2022/04/16 08:40:13;;;;;;;3.00;1.15;;;;;;;7.41;53.22;103289.19;5044671;28;20119;-71
2022/04/16 08:42:40;;;;;;;1.20;0.82;;;;;;;7.46;53.16;103284.81;5045601;28;20159;-71
2022/04/16 08:45:08;;;;;;;1.42;0.88;;;;;;;7.54;53.46;103277.78;5042905;28;20048;-71
2022/04/16 08:47:34;;;;;;;1.30;0.90;;;;;;;7.65;53.49;103279.47;5041396;28;20060;-71
2022/04/16 08:50:00;;;;;;;2.45;1.00;;;;;;;7.75;53.61;103286.41;5043154;28;20033;-72
2022/04/16 08:52:31;;;;;;;3.10;1.00;;;;;;;7.87;53.56;103269.72;5042319;28;20049;-71
2022/04/16 08:55:00;;;;;;;;;;;;;;;7.81;51.47;103275.88;5044309;28;20057;-71
2022/04/16 08:57:25;;;;;;;2.72;1.10;;;;;;;7.81;52.06;103278.50;5043518;28;19920;-71
2022/04/16 08:59:52;;;;;;;3.88;1.27;;;;;;;7.74;50.72;103284.69;5045069;28;20021;-71
2022/04/16 09:02:23;;;;;;;2.08;1.00;;;;;;;7.75;50.75;103282.03;5040606;28;20033;-71
2022/04/16 09:04:49;;;;;;;3.78;1.60;;;;;;;7.82;50.45;103279.41;5043395;28;20104;-71
2022/04/16 09:07:15;;;;;;;6.18;1.30;;;;;;;7.89;50.89;103279.34;5043427;28;20033;-70
2022/04/16 09:09:42;;;;;;;4.68;1.55;;;;;;;7.97;50.80;103276.69;5043401;28;20064;-70
2022/04/16 09:12:19;;;;;;;5.00;2.10;;;;;;;7.99;51.28;103284.53;5042649;28;20032;-71
2022/04/16 09:14:46;;;;;;;5.50;2.20;;;;;;;8.03;51.31;103292.38;5042211;28;20460;-71
2022/04/16 09:17:17;;;;;;;4.55;2.20;;;;;;;8.06;50.83;103276.63;5042816;28;20123;-71
2022/04/16 09:19:51;;;;;;;4.43;2.22;;;;;;;8.08;49.93;103276.63;5044025;28;20111;-71
2022/04/16 09:22:39;;;;;;;5.20;2.28;;;;;;;8.12;49.46;103280.94;5044287;28;20175;-71
2022/04/16 09:25:14;;;;;;;5.07;2.30;;;;;;;8.16;49.65;103282.69;5043616;28;20087;-72
2022/04/16 09:27:49;;;;;;;4.88;2.30;;;;;;;8.20;49.81;103273.91;5043961;28;20063;-71
2022/04/16 09:30:29;;;;;;;5.97;2.58;;;;;;;8.27;49.45;103264.25;5045198;28;20072;-70
2022/04/16 09:32:59;;;;;;;5.80;2.28;;;;;;;8.34;49.58;103265.91;5042230;28;20108;-70
2022/04/16 09:35:33;;;;;;;3.00;1.67;;;;;;;8.36;48.15;103272.03;5037850;28;20500;-70
2022/04/16 09:38:01;;;;;;;2.85;1.67;;;;;;;8.37;47.42;103263.28;5039777;28;20064;-70
2022/04/16 09:40:36;;;;;;;3.35;1.52;;;;;;;8.41;46.84;103266.75;5042395;28;20028;-70
2022/04/16 09:43:05;;;;;;;4.55;1.58;;;;;;;8.43;46.00;103261.50;5038316;28;20386;-70
2022/04/16 09:45:31;;;;;;;4.88;1.60;;;;;;;8.46;46.29;103259.72;5039769;28;20098;-71
2022/04/16 09:47:57;;;;;;;2.20;1.38;;;;;;;8.44;45.13;103265.88;5044039;28;20079;-70
2022/04/16 09:50:29;;;;;;;2.25;1.25;;;;;;;8.47;45.06;103255.34;5041057;28;20044;-70
2022/04/16 09:52:57;;;;;;;7.57;3.58;;;;;;;8.55;45.22;103258.81;5043370;28;20039;-70
2022/04/16 09:55:27;;;;;;;3.92;1.40;;;;;;;8.57;44.50;103261.41;5043719;28;20029;-70
2022/04/16 09:58:01;;;;;;;2.92;1.17;;;;;;;8.65;45.24;103254.34;5043662;28;20043;-70
2022/04/16 10:00:28;;;;;;;2.22;1.40;;;;;;;8.76;45.08;103257.72;5030768;28;20453;-70
2022/04/16 10:02:54;;;;;;;3.13;1.35;;;;;;;8.84;44.49;103255.03;5037297;28;20076;-70
2022/04/16 10:05:21;;;;;;;1.85;1.38;;;;;;;8.89;44.01;103250.59;5044098;28;20033;-70
2022/04/16 10:07:48;;;;;;;4.80;1.30;;;;;;;8.95;44.14;103249.66;5041026;28;20435;-70
2022/04/16 10:10:25;;;;;;;2.65;1.10;;;;;;;8.93;43.44;103265.41;5022970;28;20124;-70
2022/04/16 10:13:04;;;;;;;2.97;1.50;;;;;;;8.92;42.83;103260.19;5042849;28;20029;-70
2022/04/16 10:15:54;;;;;;;4.50;1.42;;;;;;;8.94;43.42;103250.56;5043281;28;20384;-71
2022/04/16 10:18:19;;;;;;;3.80;1.48;;;;;;;8.90;43.58;103254.09;5043011;28;20029;-69
2022/04/16 10:20:53;;;;;;;3.75;1.27;;;;;;;8.99;43.17;103254.00;5040187;28;20044;-69
2022/04/16 10:23:32;;;;;;;2.65;1.10;;;;;;;9.06;42.50;103250.41;5042996;28;20029;-70
2022/04/16 10:26:10;;;;;;;3.95;1.17;;;;;;;9.10;42.79;103251.25;5042783;28;20033;-70
2022/04/16 10:28:53;;;;;;;2.83;1.20;;;;;;;9.17;42.37;103249.41;5040561;28;20442;-70
2022/04/16 10:31:30;;;;;;;2.78;1.23;;;;;;;9.25;42.03;103255.47;5040632;28;20067;-70
2022/04/16 10:33:57;;;;;;;2.95;1.08;;;;;;;9.26;41.70;103249.31;5038086;28;20076;-70
2022/04/16 10:36:27;;;;;;;3.70;1.40;;;;;;;9.32;41.83;103256.25;5041516;28;20021;-70
2022/04/16 10:38:53;;;;;;;4.30;1.80;;;;;;;9.34;42.04;103255.34;5041975;28;20060;-70
2022/04/16 10:41:21;;;;;;;2.60;1.17;;;;;;;9.29;41.75;103258.03;5039292;28;20069;-70
2022/04/16 10:43:57;;;;;;;2.33;1.15;;;;;;;9.35;42.22;103254.44;5040707;28;20029;-71
2022/04/16 10:46:24;;;;;;;1.42;0.98;;;;;;;9.43;41.95;103260.50;5042898;28;20028;-70
2022/04/16 10:48:50;;;;;;;4.65;1.27;;;;;;;9.40;40.64;103257.91;5040314;28;20431;-70
2022/04/16 10:51:21;;;;;;;3.85;1.10;;;;;;;9.38;39.92;103256.16;5038908;28;20052;-71
2022/04/16 10:53:47;;;;;;;2.35;1.20;;;;;;;9.39;40.79;103257.91;5039899;28;20041;-70
2022/04/16 10:56:15;;;;;;;4.10;1.55;;;;;;;9.48;41.30;103256.91;5040159;28;20025;-70
2022/04/16 10:58:42;;;;;;;2.05;1.20;;;;;;;9.55;41.11;103253.34;5042193;28;20037;-71
2022/04/16 11:01:22;;;;;;;2.15;1.10;;;;;;;9.59;41.26;103255.91;5040818;28;20040;-71
2022/04/16 11:03:49;;;;;;;3.17;1.30;;;;;;;9.67;40.62;103263.69;5036873;28;20096;-70
2022/04/16 11:06:18;;;;;;;3.03;1.20;;;;;;;9.74;40.65;103265.34;5040417;28;20031;-70
2022/04/16 11:08:47;;;;;;;4.80;1.55;;;;;;;9.77;40.48;103261.81;5040764;28;20031;-70
2022/04/16 11:11:14;;;;;;;2.83;1.10;;;;;;;9.76;40.42;103253.03;5028352;28;20032;-70
2022/04/16 11:13:42;;;;;;;4.03;1.48;;;;;;;9.81;40.68;103255.63;5040775;28;20040;-70
2022/04/16 11:16:08;;;;;;;1.80;1.05;;;;;;;9.90;40.75;103259.88;5041298;28;20025;-71
2022/04/16 11:18:43;;;;;;;2.58;1.30;;;;;;;9.94;39.91;103256.28;5042546;28;20067;-70
2022/04/16 11:21:18;;;;;;;3.35;1.10;;;;;;;10.02;39.69;103257.06;5031331;28;20042;-70
2022/04/16 11:23:43;;;;;;;1.83;1.00;;;;;;;10.06;40.05;103258.72;5039037;28;20037;-71
2022/04/16 11:34:26;;;;;;;1.85;1.15;;;;;;;10.22;39.53;103264.63;5038152;28;20103;-71
2022/04/16 11:36:51;;;;;;;3.25;1.52;;;;;;;10.29;39.83;103257.50;5041129;28;20033;-71
2022/04/16 11:39:21;;;;;;;3.10;1.00;;;;;;;10.33;39.28;103259.22;5042336;28;20044;-71
2022/04/16 11:41:49;;;;;;;2.17;1.35;;;;;;;10.41;39.52;103260.88;5029392;28;20186;-71
2022/04/16 11:44:15;;;;;;;3.60;1.50;;;;;;;10.46;39.82;103251.13;5041421;28;20075;-71
2022/04/16 11:46:44;;;;;;;3.30;1.50;;;;;;;10.53;39.49;103255.38;5043043;28;20040;-71
2022/04/16 11:49:10;;;;;;;2.42;1.20;;;;;;;10.58;39.15;103257.97;5041824;28;20041;-70
2022/04/16 11:51:38;;;;;;;2.00;1.30;;;;;;;10.57;39.22;103248.31;5038777;28;20041;-72
2022/04/16 11:54:03;;;;;;;;;;;;;;;10.53;39.10;103250.13;5038589;28;19925;-72
2022/04/16 11:56:29;;;;;;;;;;;;;;;10.57;39.63;103227.25;5039531;28;20731;-72
2022/04/16 11:58:54;;;;;;;;;;;;;;;10.62;39.57;103236.81;5045469;28;19955;-72